Time;durP1;ratioP1;P1;durP2;ratioP2;P2;SDS_P1;SDS_P2;PMS_P1;PMS_P2;Temp;Humidity;BMP_temperature;BMP_pressure;BME280_temperature;BME280_humidity;BME280_pressure;Samples;Min_cycle;Max_cycle;Signal;HPM_P1;HPM_P2
2022/12/02 00:01:20;;;;;;;63.57;26.30;;;;;;;13.99;46.76;102752.69;5114393;27;20023;-69
2022/12/02 00:03:47;;;;;;;61.87;26.77;;;;;;;13.67;47.35;102751.59;5113216;27;20533;-69
2022/12/02 00:06:15;;;;;;;61.20;25.90;;;;;;;14.15;46.70;102754.56;5113676;27;20031;-68
2022/12/02 00:08:41;;;;;;;63.00;26.60;;;;;;;14.47;45.51;102750.31;5112820;27;20376;-69
2022/12/02 00:11:28;;;;;;;88.27;28.90;;;;;;;14.24;45.99;102753.72;5112524;27;20092;-69
2022/12/02 00:14:01;;;;;;;66.87;27.07;;;;;;;13.93;46.80;102748.28;5131810;27;20019;-69
2022/12/02 00:16:27;;;;;;;60.67;26.77;;;;;;;14.14;46.34;102741.41;5113164;27;20054;-69
2022/12/02 00:18:53;;;;;;;63.90;26.73;;;;;;;14.44;46.18;102745.94;5112984;27;20031;-69
2022/12/02 00:21:19;;;;;;;62.80;26.03;;;;;;;14.47;45.97;102739.81;5112409;27;20505;-69
2022/12/02 00:23:45;;;;;;;57.67;25.70;;;;;;;14.38;45.85;102731.00;5114156;27;20087;-69
2022/12/02 00:26:11;;;;;;;65.90;27.60;;;;;;;14.55;44.83;102731.03;5129018;27;20057;-69
2022/12/02 00:28:36;;;;;;;62.07;26.00;;;;;;;14.66;45.51;102731.13;5114187;27;20035;-69
2022/12/02 00:31:01;;;;;;;66.03;27.13;;;;;;;13.76;46.55;102734.16;5130736;27;20486;-69
2022/12/02 00:33:27;;;;;;;57.50;26.00;;;;;;;14.24;46.58;102732.66;5130110;27;20027;-71
2022/12/02 00:35:52;;;;;;;64.50;26.67;;;;;;;14.22;46.50;102734.44;5112020;27;20058;-69
2022/12/02 00:38:17;;;;;;;65.50;27.30;;;;;;;14.49;45.49;102738.03;5113210;27;20035;-68
2022/12/02 00:40:43;;;;;;;68.43;27.50;;;;;;;14.37;46.11;102728.31;5113094;27;20033;-69
2022/12/02 00:48:37;;;;;;;70.80;28.67;;;;;;;13.36;49.05;102725.06;5132003;27;20049;-68
2022/12/02 00:51:03;;;;;;;68.37;27.93;;;;;;;12.89;49.45;102722.84;5113200;27;20080;-68
2022/12/02 00:53:28;;;;;;;69.33;28.87;;;;;;;13.52;48.04;102720.84;5131622;27;20030;-69
2022/12/02 00:55:53;;;;;;;65.57;28.27;;;;;;;13.39;48.94;102727.75;5111625;28;20027;-68
2022/12/02 00:58:20;;;;;;;67.73;29.07;;;;;;;14.12;47.46;102728.22;5113263;27;20031;-68
2022/12/02 01:00:45;;;;;;;71.63;29.33;;;;;;;13.99;47.10;102716.75;5111685;27;20062;-69
2022/12/02 01:03:11;;;;;;;63.87;28.07;;;;;;;14.17;46.74;102725.63;5132089;28;20031;-69
2022/12/02 01:05:36;;;;;;;72.67;29.50;;;;;;;14.46;46.29;102722.25;5112177;28;20489;-69
2022/12/02 01:08:02;;;;;;;76.60;30.70;;;;;;;14.17;46.27;102728.25;5129482;28;20038;-69
2022/12/02 01:10:27;;;;;;;68.83;28.90;;;;;;;13.86;46.82;102714.91;5112916;28;20027;-69
2022/12/02 01:12:52;;;;;;;77.90;31.10;;;;;;;14.11;47.11;102715.06;5112794;28;20074;-69
2022/12/02 01:15:18;;;;;;;76.77;30.23;;;;;;;14.45;46.00;102712.59;5112495;28;20482;-69
2022/12/02 01:17:43;;;;;;;76.17;31.57;;;;;;;14.18;46.61;102722.13;5130886;28;20075;-69
2022/12/02 01:20:09;;;;;;;74.40;30.87;;;;;;;14.83;45.25;102709.22;5111651;28;20557;-69
2022/12/02 01:22:34;;;;;;;75.23;32.07;;;;;;;14.32;46.01;102709.03;5111660;28;20056;-68
2022/12/02 01:25:00;;;;;;;74.67;30.13;;;;;;;14.31;46.61;102713.41;5132018;28;20039;-69
2022/12/02 01:27:25;;;;;;;83.60;32.70;;;;;;;13.38;47.82;102720.72;5110767;28;20037;-69
2022/12/02 01:29:51;;;;;;;74.07;30.83;;;;;;;14.37;45.86;102708.19;5111956;28;20027;-69
2022/12/02 01:32:18;;;;;;;78.47;32.23;;;;;;;13.91;47.55;102716.69;5131122;27;20076;-68
2022/12/02 01:34:44;;;;;;;82.47;32.57;;;;;;;14.45;46.30;102716.09;5112667;28;20035;-69
2022/12/02 01:37:10;;;;;;;84.53;32.43;;;;;;;14.71;45.71;102718.88;5110915;28;20123;-69
2022/12/02 01:39:35;;;;;;;81.33;32.83;;;;;;;13.51;47.23;102716.44;5111392;27;20122;-69
2022/12/02 01:42:01;;;;;;;80.07;32.30;;;;;;;13.70;47.86;102720.09;5111347;27;20494;-69
2022/12/02 01:44:26;;;;;;;79.23;33.80;;;;;;;14.15;47.44;102716.84;5116314;27;20448;-69
2022/12/02 01:46:53;;;;;;;82.67;33.40;;;;;;;14.48;46.13;102709.97;5134314;27;20115;-68
2022/12/02 01:49:19;;;;;;;88.10;35.47;;;;;;;14.12;46.41;102722.09;5133614;27;20027;-69
2022/12/02 01:51:45;;;;;;;94.83;37.73;;;;;;;13.89;47.32;102725.47;5116650;27;20042;-68
2022/12/02 01:54:10;;;;;;;94.83;37.43;;;;;;;13.87;47.26;102720.19;5114681;27;20479;-69
2022/12/02 01:56:36;;;;;;;91.80;36.77;;;;;;;13.69;47.78;102727.97;5114234;27;20391;-69
2022/12/02 01:59:01;;;;;;;83.50;34.77;;;;;;;13.87;47.02;102727.19;5116466;27;20023;-69
2022/12/02 02:01:30;;;;;;;95.57;38.93;;;;;;;13.70;46.98;102725.34;5135226;27;20444;-68
2022/12/02 02:03:56;;;;;;;89.83;37.03;;;;;;;14.38;46.56;102720.47;5134648;27;20027;-69
2022/12/02 02:06:25;;;;;;;99.53;39.10;;;;;;;14.24;46.26;102727.41;5115836;27;20626;-69
2022/12/02 02:08:51;;;;;;;92.00;36.23;;;;;;;13.34;48.33;102721.53;5114504;27;20031;-69
2022/12/02 02:11:17;;;;;;;98.53;39.37;;;;;;;13.34;48.20;102720.63;5114943;27;20031;-68
2022/12/02 02:13:42;;;;;;;100.30;37.90;;;;;;;13.64;47.02;102714.81;5116586;27;20079;-69
2022/12/02 02:16:08;;;;;;;100.43;40.20;;;;;;;14.03;46.20;102715.91;5115586;27;20039;-69
2022/12/02 02:18:34;;;;;;;101.63;38.37;;;;;;;13.95;46.88;102706.22;5115358;27;20110;-69
2022/12/02 02:21:00;;;;;;;91.43;37.07;;;;;;;14.12;46.00;102706.31;5115239;27;20122;-69
2022/12/02 02:23:26;;;;;;;105.20;38.80;;;;;;;13.93;46.68;102710.59;5114244;27;20062;-69
2022/12/02 02:25:55;;;;;;;100.50;39.40;;;;;;;13.47;46.72;102705.91;5114586;27;20038;-69
2022/12/02 02:28:23;;;;;;;96.90;38.10;;;;;;;13.77;46.99;102699.13;5113533;27;20055;-69
2022/12/02 02:30:53;;;;;;;100.10;36.87;;;;;;;13.69;47.32;102691.16;5114820;27;20015;-69
2022/12/02 02:33:21;;;;;;;95.67;38.93;;;;;;;13.82;46.57;102684.22;5116413;27;20053;-69
2022/12/02 02:35:47;;;;;;;106.77;38.30;;;;;;;13.50;46.99;102688.41;5133490;27;20034;-68
2022/12/02 02:38:17;;;;;;;102.97;40.77;;;;;;;13.61;47.01;102680.59;5113659;27;20402;-69
2022/12/02 02:40:43;;;;;;;103.87;38.20;;;;;;;13.34;46.25;102687.38;5113467;27;22006;-69
2022/12/02 02:43:09;;;;;;;91.70;35.33;;;;;;;13.49;46.27;102684.03;5133732;27;20030;-68
2022/12/02 02:45:37;;;;;;;96.30;37.63;;;;;;;13.02;46.91;102685.38;5114619;27;20035;-69
2022/12/02 02:48:05;;;;;;;98.50;35.47;;;;;;;13.71;45.62;102685.06;5133464;27;20035;-68
2022/12/02 02:50:32;;;;;;;92.87;33.77;;;;;;;12.04;48.80;102683.38;5131472;27;20058;-69
2022/12/02 02:52:58;;;;;;;91.10;35.87;;;;;;;12.85;47.92;102679.06;5113434;27;20475;-69
2022/12/02 02:55:26;;;;;;;94.30;34.27;;;;;;;12.53;48.48;102677.00;5113637;27;20038;-69
2022/12/02 02:57:52;;;;;;;91.80;35.87;;;;;;;12.77;48.28;102676.38;5115574;27;20490;-69
2022/12/02 03:00:20;;;;;;;94.97;35.03;;;;;;;12.49;47.87;102675.22;5111082;28;20066;-68
2022/12/02 03:02:49;;;;;;;94.20;36.30;;;;;;;13.34;46.29;102669.00;5110269;28;20062;-68
2022/12/02 03:05:15;;;;;;;91.50;35.57;;;;;;;12.95;46.97;102675.66;5111580;28;20104;-69
2022/12/02 03:07:41;;;;;;;96.30;35.70;;;;;;;12.67;47.84;102670.16;5111023;28;20019;-69
2022/12/02 03:10:08;;;;;;;102.87;33.90;;;;;;;13.16;47.00;102674.09;5112301;28;20031;-68
2022/12/02 03:12:34;;;;;;;96.10;35.93;;;;;;;11.26;50.51;102677.81;5111212;28;20031;-69
2022/12/02 03:15:01;;;;;;;95.53;36.20;;;;;;;12.51;48.19;102674.34;5110269;28;20042;-68
2022/12/02 03:17:27;;;;;;;93.70;34.70;;;;;;;13.61;46.21;102662.19;5110309;28;20081;-69
2022/12/02 03:19:53;;;;;;;103.83;37.97;;;;;;;12.95;47.77;102651.16;5111893;28;20035;-69
2022/12/02 03:22:18;;;;;;;99.53;38.80;;;;;;;12.67;47.98;102658.78;5112592;28;20452;-69
2022/12/02 03:24:44;;;;;;;96.37;36.33;;;;;;;12.87;47.20;102648.47;5110241;28;20032;-68
2022/12/02 03:27:10;;;;;;;93.13;34.87;;;;;;;12.85;47.56;102663.34;5109572;27;20550;-69
2022/12/02 03:29:36;;;;;;;102.53;36.17;;;;;;;13.58;46.05;102656.94;5106690;27;20031;-69
2022/12/02 03:32:02;;;;;;;99.20;36.97;;;;;;;12.59;47.78;102661.31;5110614;28;20027;-69
2022/12/02 03:34:29;;;;;;;98.20;37.13;;;;;;;13.49;46.29;102652.50;5109675;28;20039;-69
2022/12/02 03:36:56;;;;;;;95.10;34.87;;;;;;;13.62;45.99;102656.09;5110876;28;20382;-68
2022/12/02 03:39:21;;;;;;;95.80;37.07;;;;;;;13.19;47.20;102647.88;5112008;28;20027;-69
2022/12/02 03:41:47;;;;;;;100.83;35.50;;;;;;;12.82;46.36;102650.19;5110353;28;20073;-68
2022/12/02 03:44:14;;;;;;;104.30;36.93;;;;;;;13.99;44.82;102624.75;5110341;28;20317;-69
2022/12/02 03:46:41;;;;;;;101.13;36.50;;;;;;;13.42;44.64;102624.41;5107135;28;20135;-69
2022/12/02 03:49:07;;;;;;;87.63;33.47;;;;;;;13.72;44.50;102633.38;5109960;28;20031;-69
2022/12/02 03:51:33;;;;;;;93.60;35.20;;;;;;;14.14;44.45;102631.81;5110476;28;20498;-69
2022/12/02 03:53:59;;;;;;;100.67;35.10;;;;;;;13.95;44.03;102636.13;5109247;28;20031;-69
2022/12/02 03:56:25;;;;;;;93.67;34.60;;;;;;;13.24;45.18;102630.41;5108983;28;20035;-69
2022/12/02 03:58:52;;;;;;;86.37;33.63;;;;;;;13.54;44.81;102629.75;5110609;28;20031;-69
2022/12/02 04:01:18;;;;;;;87.57;34.00;;;;;;;13.48;46.02;102631.50;5129774;27;20565;-69
2022/12/02 04:03:44;;;;;;;97.57;34.93;;;;;;;13.15;46.27;102635.59;5131234;27;20368;-69
2022/12/02 04:06:10;;;;;;;97.60;35.40;;;;;;;13.60;45.67;102631.56;5111333;27;20027;-69
2022/12/02 04:08:35;;;;;;;102.17;35.87;;;;;;;12.56;47.22;102632.44;5113625;27;20076;-69
2022/12/02 04:11:01;;;;;;;105.97;36.90;;;;;;;13.05;46.10;102634.63;5131707;27;20019;-69
2022/12/02 04:13:26;;;;;;;91.87;34.17;;;;;;;13.89;44.89;102625.59;5130713;27;20031;-69
2022/12/02 04:15:52;;;;;;;106.13;37.27;;;;;;;12.67;47.03;102635.16;5131120;27;20463;-69
2022/12/02 04:18:17;;;;;;;95.93;32.23;;;;;;;11.80;48.65;102641.09;5112585;27;20027;-69
2022/12/02 04:20:43;;;;;;;99.73;35.30;;;;;;;11.77;48.46;102646.28;5112734;27;20110;-69
2022/12/02 04:23:08;;;;;;;92.17;32.00;;;;;;;11.96;49.08;102636.97;5112812;27;20023;-69
2022/12/02 04:25:34;;;;;;;93.07;34.40;;;;;;;11.91;49.69;102629.03;5112682;27;20051;-68
2022/12/02 04:27:59;;;;;;;102.10;34.77;;;;;;;12.47;47.52;102629.72;5130906;27;20505;-69
2022/12/02 04:30:25;;;;;;;86.90;31.50;;;;;;;13.10;46.11;102627.66;5111983;27;20031;-69
2022/12/02 04:32:50;;;;;;;91.73;33.97;;;;;;;13.79;45.88;102623.78;5132028;27;20030;-68
2022/12/02 04:35:15;;;;;;;96.07;34.13;;;;;;;12.73;46.68;102619.47;5112705;27;20039;-69
2022/12/02 04:37:41;;;;;;;90.70;33.37;;;;;;;13.05;46.29;102619.78;5129227;27;20031;-68
2022/12/02 04:40:07;;;;;;;86.87;32.73;;;;;;;12.99;46.74;102616.22;5113167;27;20058;-69
2022/12/02 04:42:32;;;;;;;94.67;31.77;;;;;;;12.64;47.14;102612.41;5131249;27;20027;-68
2022/12/02 04:44:58;;;;;;;96.27;33.33;;;;;;;12.86;46.95;102620.47;5111146;27;20393;-68
2022/12/02 04:47:23;;;;;;;92.63;32.87;;;;;;;13.70;44.84;102607.09;5127949;27;20034;-68
2022/12/02 04:49:49;;;;;;;88.87;32.57;;;;;;;13.74;44.57;102606.22;5112475;27;20084;-68
2022/12/02 04:52:14;;;;;;;86.20;32.57;;;;;;;12.53;47.26;102603.56;5131681;27;20062;-69
2022/12/02 04:54:40;;;;;;;85.73;32.03;;;;;;;12.83;46.42;102612.56;5128986;27;20035;-68
2022/12/02 04:57:05;;;;;;;89.70;33.03;;;;;;;13.29;45.78;102605.06;5110747;27;20026;-69
2022/12/02 04:59:30;;;;;;;89.37;32.23;;;;;;;12.68;46.07;102597.56;5129822;27;20071;-68
2022/12/02 05:01:56;;;;;;;91.27;31.63;;;;;;;13.21;45.36;102604.13;5113366;28;20531;-68
2022/12/02 05:04:21;;;;;;;93.57;31.87;;;;;;;12.07;47.39;102603.03;5112694;28;20035;-68
2022/12/02 05:06:47;;;;;;;88.63;31.83;;;;;;;11.53;48.56;102605.81;5112127;28;20394;-68
2022/12/02 05:09:12;;;;;;;93.70;33.73;;;;;;;12.63;46.74;102600.16;5112007;28;20031;-69
2022/12/02 05:11:37;;;;;;;88.80;31.20;;;;;;;11.93;47.31;102594.97;5111990;28;20042;-69
2022/12/02 05:14:03;;;;;;;89.23;30.73;;;;;;;13.06;45.57;102589.13;5111825;28;20031;-68
2022/12/02 05:16:28;;;;;;;92.00;31.97;;;;;;;12.80;45.54;102591.53;5112987;27;20079;-68
2022/12/02 05:18:53;;;;;;;80.70;30.30;;;;;;;13.30;45.38;102577.94;5135401;27;20031;-69
2022/12/02 05:21:19;;;;;;;90.27;32.00;;;;;;;13.23;45.05;102586.66;5115913;27;20401;-69
2022/12/02 05:23:44;;;;;;;93.23;32.20;;;;;;;13.21;44.50;102588.38;5113717;27;20398;-68
2022/12/02 05:26:09;;;;;;;83.43;31.90;;;;;;;13.00;44.73;102582.09;5116239;27;20517;-68
2022/12/02 05:28:35;;;;;;;84.27;30.17;;;;;;;13.53;43.97;102585.09;5135358;27;20031;-69
2022/12/02 05:31:00;;;;;;;90.17;29.67;;;;;;;13.05;44.63;102585.63;5117358;27;20046;-69
2022/12/02 05:33:25;;;;;;;81.93;30.43;;;;;;;13.02;44.82;102593.50;5114028;27;20019;-69
2022/12/02 05:35:51;;;;;;;88.03;31.40;;;;;;;12.75;45.94;102598.50;5115184;27;20330;-68
2022/12/02 05:38:16;;;;;;;86.80;31.17;;;;;;;13.13;44.49;102592.69;5117316;27;20031;-68
2022/12/02 05:40:41;;;;;;;94.03;29.90;;;;;;;12.07;47.73;102603.03;5133863;27;20019;-69
2022/12/02 05:43:18;;;;;;;84.40;30.40;;;;;;;12.58;46.31;102585.22;5117369;27;20023;-68
2022/12/02 05:45:44;;;;;;;81.07;29.17;;;;;;;12.88;44.90;102584.63;5135364;27;20083;-69
2022/12/02 05:48:11;;;;;;;81.00;29.80;;;;;;;12.92;45.53;102586.41;5116726;27;20462;-69
2022/12/02 05:50:37;;;;;;;90.83;30.73;;;;;;;13.32;44.65;102586.69;5115434;27;20023;-69
2022/12/02 05:53:03;;;;;;;85.97;30.07;;;;;;;13.36;44.19;102588.50;5114399;27;20398;-68
2022/12/02 05:55:29;;;;;;;81.57;29.63;;;;;;;13.56;44.20;102590.38;5113978;27;20038;-69
2022/12/02 05:58:00;;;;;;;90.87;30.60;;;;;;;13.26;45.03;102576.16;5116941;27;20505;-68
2022/12/02 06:00:26;;;;;;;95.10;32.53;;;;;;;13.72;43.83;102570.28;5135120;27;20049;-68
2022/12/02 06:02:57;;;;;;;86.27;30.33;;;;;;;13.09;44.44;102578.66;5113741;27;20031;-68
2022/12/02 06:05:25;;;;;;;82.03;30.60;;;;;;;14.07;42.91;102573.06;5108933;27;20027;-69
2022/12/02 06:07:54;;;;;;;83.40;29.80;;;;;;;12.88;44.70;102584.63;5113981;27;20439;-68
2022/12/02 06:10:24;;;;;;;88.43;32.50;;;;;;;13.73;43.91;102582.56;5115040;27;20035;-68
2022/12/02 06:12:52;;;;;;;86.40;30.90;;;;;;;13.66;44.60;102589.53;5116979;27;20019;-69
2022/12/02 06:15:17;;;;;;;81.27;30.60;;;;;;;12.78;46.02;102588.03;5115696;27;20517;-69
2022/12/02 06:17:42;;;;;;;54.97;21.57;;;;;;;10.94;49.34;102599.66;5114984;27;20023;-68
2022/12/02 06:20:29;;;;;;;84.70;28.63;;;;;;;12.48;47.76;102579.88;5114912;27;20031;-69
2022/12/02 06:22:55;;;;;;;74.17;27.13;;;;;;;12.05;47.87;102585.56;5114096;27;20448;-68
2022/12/02 06:25:27;;;;;;;73.10;26.90;;;;;;;12.45;47.43;102589.50;5114586;27;20031;-69
2022/12/02 06:28:08;;;;;;;72.18;27.60;;;;;;;13.01;46.06;102575.97;5134312;27;20110;-68
2022/12/02 06:30:34;;;;;;;80.30;28.10;;;;;;;13.20;44.74;102579.63;5115720;27;20159;-69
2022/12/02 06:32:59;;;;;;;75.43;26.50;;;;;;;12.07;47.88;102587.31;5114986;27;20146;-68
2022/12/02 06:35:28;;;;;;;68.10;27.30;;;;;;;12.31;47.49;102579.72;5113079;27;20474;-69
2022/12/02 06:38:01;;;;;;;67.90;25.83;;;;;;;12.39;46.58;102580.69;5112604;27;20031;-69
2022/12/02 06:40:35;;;;;;;78.22;27.65;;;;;;;12.63;46.37;102580.91;5115999;27;20072;-69
2022/12/02 06:43:10;;;;;;;69.73;25.37;;;;;;;12.81;46.26;102582.81;5114804;27;20125;-68
2022/12/02 06:45:36;;;;;;;66.90;25.43;;;;;;;12.38;47.07;102584.16;5114364;27;20031;-69
2022/12/02 06:48:25;;;;;;;71.00;25.27;;;;;;;10.90;50.57;102587.38;5116108;27;20067;-68
2022/12/02 06:50:51;;;;;;;74.77;25.00;;;;;;;13.03;46.23;102583.88;5094900;27;20032;-69
2022/12/02 06:53:25;;;;;;;74.87;25.83;;;;;;;12.99;45.86;102588.19;5097495;27;20039;-68
2022/12/02 06:56:16;;;;;;;73.97;25.87;;;;;;;12.17;47.69;102589.16;5115215;27;20034;-68
2022/12/02 06:58:41;;;;;;;70.30;26.27;;;;;;;11.41;50.06;102600.41;5100661;27;20064;-68
2022/12/02 07:01:06;;;;;;;78.67;26.37;;;;;;;12.16;47.56;102587.44;5101802;27;20058;-68
2022/12/02 07:03:34;;;;;;;73.33;26.50;;;;;;;11.34;48.57;102604.66;5115170;27;20019;-69
2022/12/02 07:06:14;;;;;;;73.37;24.90;;;;;;;10.65;50.36;102602.66;5109801;27;20478;-68
2022/12/02 07:08:39;;;;;;;75.90;25.70;;;;;;;11.55;47.55;102604.06;5124808;27;20023;-68
2022/12/02 07:11:48;;;;;;;67.77;23.87;;;;;;;9.96;51.87;102602.19;5113520;27;20398;-68
2022/12/02 07:14:35;;;;;;;71.90;24.50;;;;;;;10.65;49.59;102605.28;5130495;27;20065;-69
2022/12/02 07:17:23;;;;;;;66.37;23.03;;;;;;;10.95;48.85;102600.53;5112951;27;20103;-68
2022/12/02 07:20:08;;;;;;;73.03;23.00;;;;;;;11.45;47.51;102602.19;5126162;27;20130;-69
2022/12/02 07:22:44;;;;;;;68.63;23.87;;;;;;;10.23;49.96;102611.41;5094985;28;20031;-68
2022/12/02 07:25:09;;;;;;;72.80;24.47;;;;;;;10.90;49.42;102608.31;5094869;28;20058;-69
2022/12/02 07:27:38;;;;;;;68.73;23.93;;;;;;;9.65;51.81;102614.56;5110156;27;20525;-68
2022/12/02 07:30:38;;;;;;;73.20;24.27;;;;;;;10.46;49.24;102616.25;5113450;27;20390;-68
2022/12/02 07:33:04;;;;;;;71.73;24.43;;;;;;;11.17;48.64;102617.50;5133689;27;20067;-68
2022/12/02 07:35:29;;;;;;;71.83;23.63;;;;;;;11.66;48.07;102604.22;5109977;27;20039;-68
2022/12/02 07:37:56;;;;;;;73.67;26.27;;;;;;;11.35;47.22;102623.00;5109684;27;20062;-68
2022/12/02 07:40:22;;;;;;;65.30;22.53;;;;;;;11.85;46.94;102618.47;5112564;27;20027;-68
2022/12/02 07:42:47;;;;;;;70.33;24.63;;;;;;;11.45;47.37;102623.16;5112900;27;20088;-68
2022/12/02 07:45:15;;;;;;;66.43;24.60;;;;;;;11.19;46.88;102627.09;5131901;27;20027;-68
2022/12/02 07:47:41;;;;;;;67.47;22.20;;;;;;;11.43;46.48;102627.47;5109280;27;20041;-69
2022/12/02 07:50:07;;;;;;;71.23;22.93;;;;;;;11.01;46.82;102622.44;5109856;27;20398;-68
2022/12/02 07:52:33;;;;;;;60.43;21.30;;;;;;;9.96;48.98;102630.91;5114507;27;20027;-68
2022/12/02 07:55:00;;;;;;;66.23;22.40;;;;;;;11.79;46.34;102626.25;5113028;27;20037;-68
2022/12/02 07:57:25;;;;;;;62.93;23.17;;;;;;;10.59;47.29;102628.72;5112705;27;20144;-68
2022/12/02 07:59:50;;;;;;;60.67;20.77;;;;;;;10.73;47.64;102636.81;5113350;27;20051;-68
2022/12/02 08:02:16;;;;;;;63.50;22.73;;;;;;;10.32;48.14;102635.13;5113824;27;20473;-69
2022/12/02 08:04:41;;;;;;;51.13;19.97;;;;;;;10.24;47.78;102626.25;5113999;27;20019;-69
2022/12/02 08:07:06;;;;;;;57.97;20.50;;;;;;;10.04;47.88;102622.34;5076609;27;20486;-68
2022/12/02 08:09:32;;;;;;;56.17;19.53;;;;;;;9.71;50.17;102639.06;5109072;27;20435;-68
2022/12/02 08:11:57;;;;;;;51.77;19.43;;;;;;;9.77;49.43;102636.59;5110723;27;20359;-68
2022/12/02 08:14:23;;;;;;;57.93;20.63;;;;;;;10.69;48.29;102630.63;5110661;27;20038;-68
2022/12/02 08:16:48;;;;;;;60.10;19.70;;;;;;;10.74;47.73;102635.06;5130692;27;20035;-68
2022/12/02 08:19:13;;;;;;;51.50;18.90;;;;;;;10.34;48.83;102622.09;5113552;27;20114;-69
2022/12/02 08:21:39;;;;;;;58.20;21.30;;;;;;;11.36;46.25;102630.00;5112124;27;20027;-69
2022/12/02 08:24:06;;;;;;;56.83;19.93;;;;;;;10.88;47.10;102630.06;5112863;27;20500;-68
2022/12/02 08:26:31;;;;;;;53.93;17.90;;;;;;;11.41;45.82;102624.81;5113061;27;20019;-69
2022/12/02 08:28:57;;;;;;;55.23;17.80;;;;;;;11.29;46.51;102628.16;5110652;27;20045;-68
2022/12/02 08:31:22;;;;;;;53.53;17.43;;;;;;;10.44;48.51;102625.78;5109537;27;20122;-69
2022/12/02 08:33:49;;;;;;;50.23;17.40;;;;;;;10.35;47.83;102624.75;5132230;27;20478;-68
2022/12/02 08:36:14;;;;;;;52.03;19.00;;;;;;;11.05;47.61;102631.25;5101490;27;20031;-68
2022/12/02 08:38:41;;;;;;;55.23;18.63;;;;;;;9.88;48.92;102632.50;5111639;27;20041;-68
2022/12/02 08:41:06;;;;;;;46.20;15.87;;;;;;;10.53;46.27;102623.34;5113118;27;20027;-68
2022/12/02 08:43:32;;;;;;;50.73;17.43;;;;;;;10.90;46.46;102633.63;5130482;27;20382;-69
2022/12/02 08:45:57;;;;;;;51.23;17.17;;;;;;;10.95;47.17;102632.84;5110972;27;20080;-68
2022/12/02 08:48:23;;;;;;;49.73;17.13;;;;;;;10.87;47.32;102639.66;5111244;27;20019;-68
2022/12/02 08:50:48;;;;;;;51.40;17.40;;;;;;;11.29;46.41;102633.38;5111320;28;20031;-68
2022/12/02 08:53:13;;;;;;;46.17;17.83;;;;;;;12.11;45.34;102625.81;5113133;27;20525;-68
2022/12/02 08:55:39;;;;;;;46.43;18.43;;;;;;;11.36;46.74;102640.47;5113272;28;20037;-69
2022/12/02 08:58:04;;;;;;;44.57;16.97;;;;;;;11.58;45.96;102626.81;5111018;27;20137;-68
2022/12/02 09:00:30;;;;;;;43.90;17.57;;;;;;;11.07;47.62;102628.66;5128802;27;20219;-68
2022/12/02 09:02:57;;;;;;;44.37;18.10;;;;;;;11.23;46.83;102635.03;5130505;27;20761;-69
2022/12/02 09:05:22;;;;;;;41.43;16.37;;;;;;;11.92;44.85;102625.53;5129743;27;20036;-68
2022/12/02 09:07:48;;;;;;;45.53;17.43;;;;;;;11.69;45.41;102638.31;5110554;28;20430;-68
2022/12/02 09:10:14;;;;;;;47.63;16.63;;;;;;;11.05;46.84;102635.63;5112409;28;20080;-68
2022/12/02 09:12:40;;;;;;;45.60;17.67;;;;;;;12.05;45.26;102624.88;5128031;27;20031;-68
2022/12/02 09:15:06;;;;;;;40.63;16.83;;;;;;;11.70;45.50;102635.75;5112255;28;20033;-68
2022/12/02 09:17:32;;;;;;;42.50;15.97;;;;;;;12.29;43.94;102631.25;5130639;28;20037;-68
2022/12/02 09:19:57;;;;;;;43.67;16.63;;;;;;;11.50;45.76;102629.34;5111069;28;20027;-68
2022/12/02 09:22:23;;;;;;;37.83;15.00;;;;;;;10.78;47.50;102639.50;5108542;28;20023;-68
2022/12/02 09:24:48;;;;;;;40.53;15.80;;;;;;;11.30;46.14;102635.13;5112822;28;20471;-68
2022/12/02 09:27:14;;;;;;;44.33;16.80;;;;;;;11.49;46.04;102632.81;5110290;28;20027;-68
2022/12/02 09:29:39;;;;;;;39.73;16.33;;;;;;;11.17;46.50;102641.06;5128564;27;20403;-68
2022/12/02 09:32:04;;;;;;;36.57;16.20;;;;;;;11.84;46.38;102642.88;5108461;28;20035;-68
2022/12/02 09:34:30;;;;;;;37.40;16.97;;;;;;;11.42;45.82;102644.06;5130376;28;20566;-68
2022/12/02 09:36:55;;;;;;;40.60;17.00;;;;;;;11.59;45.97;102639.94;5111571;28;20080;-68
2022/12/02 09:39:20;;;;;;;41.50;15.97;;;;;;;10.64;47.82;102640.13;5113023;28;20465;-68
2022/12/02 09:41:46;;;;;;;48.97;16.50;;;;;;;10.66;48.30;102641.03;5111048;28;20035;-68
2022/12/02 09:44:11;;;;;;;37.50;15.77;;;;;;;10.23;47.96;102640.16;5111163;28;20118;-69
2022/12/02 09:46:37;;;;;;;35.90;16.27;;;;;;;10.77;46.98;102632.50;5111441;28;20506;-69
2022/12/02 09:49:03;;;;;;;34.43;15.30;;;;;;;11.09;46.27;102638.28;5110640;28;20079;-68
2022/12/02 09:51:29;;;;;;;38.80;16.97;;;;;;;11.76;45.88;102640.19;5112111;28;20122;-69
2022/12/02 09:53:56;;;;;;;35.63;14.60;;;;;;;10.29;47.89;102640.31;5110880;28;20458;-68
2022/12/02 09:56:22;;;;;;;37.30;15.77;;;;;;;11.31;46.08;102625.56;5112439;28;20398;-68
2022/12/02 09:58:50;;;;;;;41.17;15.80;;;;;;;12.72;43.60;102621.22;5109698;28;20038;-68
2022/12/02 10:01:16;;;;;;;34.27;15.80;;;;;;;12.28;43.98;102618.13;5130223;28;20096;-68
2022/12/02 10:03:44;;;;;;;36.67;14.97;;;;;;;11.19;45.60;102621.00;5114426;27;20394;-68
2022/12/02 10:06:36;;;;;;;32.60;15.53;;;;;;;12.59;44.87;102605.34;5131091;27;20027;-69
2022/12/02 10:09:01;;;;;;;34.70;14.70;;;;;;;10.97;46.05;102618.03;5108867;27;20038;-68
2022/12/02 10:11:33;;;;;;;36.47;16.23;;;;;;;10.38;47.95;102612.63;5116607;27;20024;-69
2022/12/02 10:13:59;;;;;;;36.70;14.93;;;;;;;12.21;44.49;102610.22;5115946;27;20417;-68
2022/12/02 10:16:26;;;;;;;32.77;14.77;;;;;;;10.97;47.57;102612.78;5115882;27;20268;-69
2022/12/02 10:18:52;;;;;;;42.67;15.67;;;;;;;10.80;46.38;102602.06;5113796;27;20019;-68
2022/12/02 10:21:18;;;;;;;37.23;16.67;;;;;;;12.38;44.47;102602.53;5114479;27;20496;-69
2022/12/02 10:23:57;;;;;;;36.67;15.30;;;;;;;12.28;44.85;102598.06;5111199;28;20027;-69
2022/12/02 10:26:23;;;;;;;31.83;14.40;;;;;;;12.77;43.37;102591.53;5101907;27;20449;-68
2022/12/02 10:29:01;;;;;;;37.30;15.63;;;;;;;12.24;44.13;102593.63;5106689;27;20019;-69
2022/12/02 10:31:27;;;;;;;34.10;15.13;;;;;;;11.73;45.22;102589.47;5129891;27;20023;-68
2022/12/02 10:33:55;;;;;;;39.30;14.33;;;;;;;12.10;44.84;102587.34;5111741;27;20480;-69
2022/12/02 10:36:36;;;;;;;32.63;13.60;;;;;;;11.45;45.80;102576.00;5110291;27;20375;-69
2022/12/02 10:39:33;;;;;;;32.27;14.73;;;;;;;11.74;45.23;102573.78;5131823;27;20453;-68
2022/12/02 10:42:08;;;;;;;30.83;13.57;;;;;;;11.02;46.23;102566.66;5103688;27;20210;-68
2022/12/02 10:44:36;;;;;;;32.83;13.17;;;;;;;11.59;44.50;102574.44;5113690;27;20054;-68
2022/12/02 10:47:19;;;;;;;39.90;15.33;;;;;;;12.22;44.21;102561.25;5105757;27;20027;-68
2022/12/02 10:49:49;;;;;;;36.85;15.20;;;;;;;11.90;45.83;102574.84;5109974;27;20035;-68
2022/12/02 10:52:15;;;;;;;38.00;14.17;;;;;;;11.54;45.17;102574.41;5104975;27;20031;-68
2022/12/02 10:54:45;;;;;;;32.93;13.23;;;;;;;11.39;45.80;102582.03;5114271;27;20436;-69
2022/12/02 10:57:32;;;;;;;34.67;12.93;;;;;;;11.96;45.58;102572.31;5113962;27;20393;-68
2022/12/02 11:00:03;;;;;;;32.13;14.23;;;;;;;12.27;45.37;102570.06;5113990;27;20498;-68
2022/12/02 11:02:37;;;;;;;33.73;14.33;;;;;;;12.13;44.79;102561.16;5114162;27;20085;-68
2022/12/02 11:05:19;;;;;;;36.47;14.83;;;;;;;12.92;43.17;102554.91;5112755;27;20035;-68
2022/12/02 11:07:55;;;;;;;30.87;13.67;;;;;;;12.14;44.04;102557.69;5132023;27;20072;-68
2022/12/02 11:10:24;;;;;;;29.77;14.17;;;;;;;11.52;45.48;102563.00;5113789;27;20034;-68
2022/12/02 11:12:49;;;;;;;31.90;13.13;;;;;;;10.80;46.47;102577.63;5111632;27;20390;-68
2022/12/02 11:15:36;;;;;;;34.60;15.47;;;;;;;10.84;46.80;102567.25;5112879;27;20118;-68
2022/12/02 11:18:03;;;;;;;37.97;15.27;;;;;;;10.89;47.21;102569.06;5110998;27;20057;-68